Time,TemperatureF,DewpointF,PressureIn,WindDirection,WindDirectionDegrees,WindSpeedMPH,WindSpeedGustMPH,Humidity,HourlyPrecipIn,Conditions,Clouds,dailyrainin,SoftwareType,DateUTC
2013-06-27 00:12:00,76.0,-99.9,-100.00,NE,50,0.0,1.0,-999,0.00,,,0.35,,2013-06-27 05:12:00,
2013-06-27 00:22:00,76.0,-99.9,-100.00,NE,50,0.0,1.0,-999,0.00,,,0.35,,2013-06-27 05:22:00,
2013-06-27 00:30:00,76.0,-99.9,-100.00,West,267,4.0,6.0,-999,0.00,,,0.35,,2013-06-27 05:30:00,
2013-06-27 01:12:00,76.0,-99.9,-100.00,West,267,4.0,6.0,-999,0.00,,,0.35,,2013-06-27 06:12:00,
2013-06-27 01:23:00,76.0,-99.9,-100.00,West,267,4.0,6.0,-999,0.00,,,0.35,,2013-06-27 06:23:00,
2013-06-27 02:12:00,77.0,-99.9,-100.00,WNW,297,5.0,9.0,-999,0.00,,,0.35,,2013-06-27 07:12:00,
2013-06-27 02:22:00,77.0,-99.9,-100.00,WNW,297,5.0,9.0,-999,0.00,,,0.35,,2013-06-27 07:22:00,
2013-06-27 02:30:00,75.0,-99.9,-100.00,WNW,291,6.0,9.0,-999,0.00,,,0.35,,2013-06-27 07:30:00,
2013-06-27 02:43:00,76.0,-99.9,-100.00,WNW,288,3.0,8.0,-999,0.00,,,0.35,,2013-06-27 07:43:00,
2013-06-27 02:52:00,76.0,-99.9,-100.00,WNW,288,3.0,8.0,-999,0.00,,,0.35,,2013-06-27 07:52:00,
2013-06-27 03:11:00,75.0,-99.9,-100.00,WNW,291,6.0,9.0,-999,0.00,,,0.35,,2013-06-27 08:11:00,
2013-06-27 03:22:00,75.0,-99.9,-100.00,WNW,291,6.0,9.0,-999,0.00,,,0.35,,2013-06-27 08:22:00,
2013-06-27 04:12:00,74.0,-99.9,-100.00,WNW,282,4.0,7.0,-999,0.00,,,0.35,,2013-06-27 09:12:00,
2013-06-27 04:22:00,74.0,-99.9,-100.00,WNW,282,4.0,7.0,-999,0.00,,,0.35,,2013-06-27 09:22:00,
2013-06-27 04:43:00,73.0,-99.9,-100.00,WNW,285,6.0,8.0,-999,0.00,,,0.35,,2013-06-27 09:43:00,
2013-06-27 04:53:00,73.0,-99.9,-100.00,WNW,285,6.0,8.0,-999,0.00,,,0.35,,2013-06-27 09:53:00,
2013-06-27 05:11:00,72.0,-99.9,-100.00,WNW,294,5.0,7.0,-999,0.00,,,0.35,,2013-06-27 10:11:00,
2013-06-27 05:22:00,72.0,-99.9,-100.00,WNW,294,5.0,7.0,-999,0.00,,,0.35,,2013-06-27 10:22:00,
2013-06-27 05:44:00,72.0,-99.9,-100.00,WNW,285,6.0,9.0,-999,0.00,,,0.35,,2013-06-27 10:44:00,
2013-06-27 05:54:00,72.0,-99.9,-100.00,WNW,285,6.0,9.0,-999,0.00,,,0.35,,2013-06-27 10:54:00,
2013-06-27 06:02:00,71.0,-99.9,-100.00,SW,232,3.0,4.0,-999,0.00,,,0.16,,2013-06-27 11:02:00,
2013-06-27 06:12:00,71.0,-99.9,-100.00,SW,232,3.0,4.0,-999,0.00,,,0.16,,2013-06-27 11:12:00,
2013-06-27 06:22:00,71.0,-99.9,-100.00,SW,232,3.0,4.0,-999,0.00,,,0.16,,2013-06-27 11:22:00,
2013-06-27 06:33:00,71.0,-99.9,-100.00,SW,221,2.0,3.0,-999,0.00,,,0.14,,2013-06-27 11:33:00,
2013-06-27 06:43:00,71.0,-99.9,-100.00,SW,221,2.0,3.0,-999,0.00,,,0.14,,2013-06-27 11:43:00,
2013-06-27 06:53:00,71.0,-99.9,-100.00,SW,221,2.0,3.0,-999,0.00,,,0.14,,2013-06-27 11:53:00,
2013-06-27 07:12:00,72.0,-99.9,-100.00,WSW,237,3.0,5.0,-999,0.00,,,0.13,,2013-06-27 12:12:00,
2013-06-27 07:22:00,72.0,-99.9,-100.00,WSW,237,3.0,5.0,-999,0.00,,,0.13,,2013-06-27 12:22:00,
2013-06-27 07:30:00,74.0,-99.9,-100.00,West,265,3.0,4.0,-999,0.00,,,0.04,,2013-06-27 12:30:00,
2013-06-27 07:42:00,72.0,-99.9,-100.00,WSW,237,4.0,5.0,-999,0.00,,,0.07,,2013-06-27 12:42:00,
2013-06-27 08:11:00,74.0,-99.9,-100.00,West,265,3.0,4.0,-999,0.00,,,0.04,,2013-06-27 13:11:00,
2013-06-27 08:22:00,74.0,-99.9,-100.00,West,265,3.0,4.0,-999,0.00,,,0.04,,2013-06-27 13:22:00,
2013-06-27 09:12:00,79.0,-99.9,-100.00,NW,320,2.0,7.0,-999,0.00,,,0.01,,2013-06-27 14:12:00,
2013-06-27 09:22:00,79.0,-99.9,-100.00,NW,320,2.0,7.0,-999,0.00,,,0.01,,2013-06-27 14:22:00,
2013-06-27 09:43:00,79.0,-99.9,-100.00,SW,223,3.0,4.0,-999,0.00,,,0.01,,2013-06-27 14:43:00,
2013-06-27 09:52:00,79.0,-99.9,-100.00,SW,223,3.0,4.0,-999,0.00,,,0.01,,2013-06-27 14:52:00,
2013-06-27 10:12:00,80.0,-99.9,-100.00,SW,226,3.0,5.0,-999,0.00,,,0.01,,2013-06-27 15:12:00,
2013-06-27 10:22:00,80.0,-99.9,-100.00,SW,226,3.0,5.0,-999,0.00,,,0.01,,2013-06-27 15:22:00,
2013-06-27 10:42:00,81.0,-99.9,-100.00,SW,224,4.0,5.0,-999,0.00,,,0.01,,2013-06-27 15:42:00,
2013-06-27 10:52:00,81.0,-99.9,-100.00,SW,224,4.0,5.0,-999,0.00,,,0.01,,2013-06-27 15:52:00,
2013-06-27 11:11:00,82.0,-99.9,-100.00,WSW,257,4.0,7.0,-999,0.00,,,0.01,,2013-06-27 16:11:00,
2013-06-27 11:24:00,82.0,-99.9,-100.00,WSW,257,4.0,7.0,-999,0.00,,,0.01,,2013-06-27 16:24:00,
2013-06-27 11:43:00,84.0,-99.9,-100.00,WSW,251,4.0,8.0,-999,0.00,,,0.01,,2013-06-27 16:43:00,
2013-06-27 11:53:00,84.0,-99.9,-100.00,WSW,251,4.0,8.0,-999,0.00,,,0.01,,2013-06-27 16:53:00,
2013-06-27 12:11:00,84.0,-99.9,-100.00,SW,225,5.0,9.0,-999,0.00,,,0.01,,2013-06-27 17:11:00,
2013-06-27 12:22:00,84.0,-99.9,-100.00,SW,225,5.0,9.0,-999,0.00,,,0.01,,2013-06-27 17:22:00,
2013-06-27 12:30:00,85.0,-99.9,-100.00,WSW,254,6.0,10.0,-999,0.00,,,0.00,,2013-06-27 17:30:00,
2013-06-27 12:43:00,84.0,-99.9,-100.00,SW,235,5.0,8.0,-999,0.00,,,0.01,,2013-06-27 17:43:00,
2013-06-27 12:53:00,84.0,-99.9,-100.00,SW,235,5.0,8.0,-999,0.00,,,0.01,,2013-06-27 17:53:00,
2013-06-27 13:12:00,85.0,-99.9,-100.00,WSW,254,6.0,10.0,-999,0.00,,,0.00,,2013-06-27 18:12:00,
2013-06-27 13:22:00,85.0,-99.9,-100.00,WSW,254,6.0,10.0,-999,0.00,,,0.00,,2013-06-27 18:22:00,
2013-06-27 14:11:00,84.0,-99.9,-100.00,SW,231,7.0,11.0,-999,0.00,,,0.00,,2013-06-27 19:11:00,
2013-06-27 14:23:00,84.0,-99.9,-100.00,SW,231,7.0,11.0,-999,0.00,,,0.00,,2013-06-27 19:23:00,
2013-06-27 15:11:00,87.0,-99.9,-100.00,SW,226,11.0,18.0,-999,-99.99,,,-99.99,,2013-06-27 20:11:00,
2013-06-27 15:22:00,87.0,-99.9,-100.00,SW,226,11.0,18.0,-999,-99.99,,,-99.99,,2013-06-27 20:22:00,
2013-06-27 15:49:00,84.0,-99.9,-100.00,WSW,256,8.0,13.0,-999,0.00,,,0.00,,2013-06-27 20:49:00,
2013-06-27 15:57:00,84.0,-99.9,-100.00,WSW,256,8.0,13.0,-999,0.00,,,0.00,,2013-06-27 20:57:00,
2013-06-27 16:17:00,85.0,-99.9,-100.00,WSW,257,10.0,15.0,-999,0.00,,,0.00,,2013-06-27 21:17:00,
2013-06-27 16:26:00,85.0,-99.9,-100.00,WSW,257,10.0,15.0,-999,0.00,,,0.00,,2013-06-27 21:26:00,
2013-06-27 16:50:00,83.0,-99.9,-100.00,West,264,10.0,16.0,-999,0.00,,,0.00,,2013-06-27 21:50:00,
2013-06-27 16:58:00,83.0,-99.9,-100.00,West,264,10.0,16.0,-999,0.00,,,0.00,,2013-06-27 21:58:00,
2013-06-27 17:16:00,84.0,-99.9,-100.00,West,264,10.0,13.0,-999,0.00,,,0.00,,2013-06-27 22:16:00,
2013-06-27 17:25:00,84.0,-99.9,-100.00,West,264,10.0,13.0,-999,0.00,,,0.00,,2013-06-27 22:25:00,
2013-06-27 17:30:00,83.0,-99.9,-100.00,West,265,12.0,19.0,-999,0.00,,,0.00,,2013-06-27 22:30:00,
2013-06-27 17:51:00,84.0,-99.9,-100.00,West,262,10.0,17.0,-999,0.00,,,0.00,,2013-06-27 22:51:00,
2013-06-27 17:59:00,84.0,-99.9,-100.00,West,262,10.0,17.0,-999,0.00,,,0.00,,2013-06-27 22:59:00,
2013-06-27 18:18:00,83.0,-99.9,-100.00,West,265,12.0,19.0,-999,0.00,,,0.00,,2013-06-27 23:18:00,
2013-06-27 18:26:00,83.0,-99.9,-100.00,West,265,12.0,19.0,-999,0.00,,,0.00,,2013-06-27 23:26:00,
2013-06-27 19:46:00,84.0,-99.9,-100.00,West,275,7.0,11.0,-999,0.00,,,0.00,,2013-06-28 00:46:00,
2013-06-27 19:57:00,84.0,-99.9,-100.00,West,275,7.0,11.0,-999,0.00,,,0.00,,2013-06-28 00:57:00,
2013-06-27 20:15:00,83.0,-99.9,-100.00,West,281,6.0,10.0,-999,0.00,,,0.00,,2013-06-28 01:15:00,
2013-06-27 20:38:00,82.0,-99.9,-100.00,West,260,6.0,11.0,-999,0.00,,,0.00,,2013-06-28 01:38:00,
2013-06-27 20:49:00,82.0,-99.9,-100.00,West,260,6.0,11.0,-999,0.00,,,0.00,,2013-06-28 01:49:00,
2013-06-27 20:59:00,82.0,-99.9,-100.00,West,260,6.0,11.0,-999,0.00,,,0.00,,2013-06-28 01:59:00,
2013-06-27 21:18:00,81.0,-99.9,-100.00,West,271,4.0,5.0,-999,0.00,,,0.00,,2013-06-28 02:18:00,
2013-06-27 21:29:00,81.0,-99.9,-100.00,West,271,4.0,5.0,-999,0.00,,,0.00,,2013-06-28 02:29:00,
2013-06-27 21:50:00,80.0,-99.9,-100.00,West,268,5.0,9.0,-999,0.00,,,0.00,,2013-06-28 02:50:00,
2013-06-27 21:58:00,80.0,-99.9,-100.00,West,268,5.0,9.0,-999,0.00,,,0.00,,2013-06-28 02:58:00,
2013-06-27 22:15:00,78.0,-99.9,-100.00,West,266,4.0,6.0,-999,0.00,,,0.00,,2013-06-28 03:15:00,
2013-06-27 22:28:00,78.0,-99.9,-100.00,West,266,4.0,6.0,-999,0.00,,,0.00,,2013-06-28 03:28:00,
2013-06-27 22:46:00,77.0,-99.9,-100.00,WSW,256,4.0,7.0,-999,0.00,,,0.00,,2013-06-28 03:46:00,
2013-06-27 22:58:00,77.0,-99.9,-100.00,WSW,256,4.0,7.0,-999,0.00,,,0.00,,2013-06-28 03:58:00,
2013-06-27 23:12:00,78.0,-99.9,-100.00,West,275,5.0,9.0,-999,0.00,,,0.00,,2013-06-28 04:12:00,
2013-06-27 23:22:00,78.0,-99.9,-100.00,West,275,5.0,9.0,-999,0.00,,,0.00,,2013-06-28 04:22:00,
2013-06-27 23:30:00,76.0,-99.9,-100.00,WSW,247,7.0,9.0,-999,0.00,,,0.00,,2013-06-28 04:30:00,
2013-06-27 23:43:00,77.0,-99.9,-100.00,West,271,3.0,6.0,-999,0.00,,,0.00,,2013-06-28 04:43:00,
2013-06-27 23:53:00,77.0,-99.9,-100.00,West,271,3.0,6.0,-999,0.00,,,0.00,,2013-06-28 04:53:00,